createdAt,value
2018-02-20T00:00:12.658Z,36.80
2018-02-20T00:02:40.957Z,37.40
2018-02-20T00:05:08.489Z,34.23
2018-02-20T00:07:36.017Z,35.90
2018-02-20T00:10:03.586Z,35.53
2018-02-20T00:12:31.110Z,36.50
2018-02-20T00:14:58.840Z,36.77
2018-02-20T00:17:27.177Z,39.60
2018-02-20T00:19:54.976Z,34.80
2018-02-20T00:22:22.769Z,40.53
2018-02-20T00:24:50.280Z,37.53
2018-02-20T00:27:18.517Z,35.47
2018-02-20T00:29:46.387Z,36.43
2018-02-20T00:32:13.944Z,35.33
2018-02-20T00:34:41.462Z,34.13
2018-02-20T00:37:09.750Z,37.77
2018-02-20T00:39:38.669Z,40.93
2018-02-20T00:42:06.802Z,40.70
2018-02-20T00:44:35.191Z,35.50
2018-02-20T00:47:03.501Z,33.27
2018-02-20T00:49:31.372Z,38.33
2018-02-20T00:51:58.903Z,36.47
2018-02-20T00:54:27.305Z,36.77
2018-02-20T00:56:54.830Z,36.63
2018-02-20T00:59:28.056Z,40.43
2018-02-20T01:01:55.565Z,39.20
2018-02-20T01:04:26.902Z,38.40
2018-02-20T01:06:54.745Z,41.00
2018-02-20T01:09:22.439Z,42.57
2018-02-20T01:11:49.947Z,41.17
2018-02-20T01:14:25.592Z,39.83
2018-02-20T01:16:54.812Z,39.80
2018-02-20T01:19:22.382Z,35.60
2018-02-20T01:21:54.137Z,41.20
2018-02-20T01:24:21.701Z,39.83
2018-02-20T01:26:49.860Z,38.37
2018-02-20T01:29:17.502Z,36.80
2018-02-20T01:31:45.776Z,38.67
2018-02-20T01:34:14.070Z,37.07
2018-02-20T01:36:41.634Z,35.33
2018-02-20T01:39:09.693Z,37.47
2018-02-20T01:41:37.577Z,34.87
2018-02-20T01:44:05.527Z,36.77
2018-02-20T01:46:33.057Z,41.83
2018-02-20T01:49:00.573Z,36.57
2018-02-20T01:51:28.125Z,34.57
2018-02-20T01:53:56.145Z,37.50
2018-02-20T01:56:23.677Z,35.90
2018-02-20T01:58:53.068Z,39.37
2018-02-20T02:01:20.928Z,33.83
2018-02-20T02:03:48.503Z,41.53
2018-02-20T02:06:16.115Z,37.00
2018-02-20T02:08:44.517Z,36.50
2018-02-20T02:11:12.040Z,39.77
2018-02-20T02:13:39.569Z,40.60
2018-02-20T02:16:07.091Z,34.20
2018-02-20T02:18:34.749Z,42.77
2018-02-20T02:21:02.962Z,38.20
2018-02-20T02:23:30.517Z,39.27
2018-02-20T02:25:58.062Z,39.17
2018-02-20T02:28:26.009Z,35.70
2018-02-20T02:30:53.546Z,43.17
2018-02-20T02:33:25.448Z,39.33
2018-02-20T02:35:52.981Z,39.47
2018-02-20T02:38:21.283Z,41.03
2018-02-20T02:40:49.685Z,42.30
2018-02-20T02:43:17.320Z,43.40
2018-02-20T02:45:45.432Z,38.40
2018-02-20T02:48:15.025Z,37.93
2018-02-20T02:50:42.689Z,35.80
2018-02-20T02:53:12.819Z,36.30
2018-02-20T02:55:41.246Z,38.33
2018-02-20T02:58:09.551Z,34.50
2018-02-20T03:00:37.843Z,39.40
2018-02-20T03:03:05.846Z,37.73
2018-02-20T03:05:33.360Z,34.07
2018-02-20T03:08:01.637Z,33.17
2018-02-20T03:10:29.169Z,37.63
2018-02-20T03:13:02.043Z,34.37
2018-02-20T03:15:30.366Z,37.93
2018-02-20T03:17:58.764Z,38.47
2018-02-20T03:20:28.045Z,42.20
2018-02-20T03:22:56.419Z,42.60
2018-02-20T03:25:24.796Z,35.17
2018-02-20T03:27:53.112Z,36.77
2018-02-20T03:30:21.602Z,36.63
2018-02-20T03:32:49.696Z,37.93
2018-02-20T03:35:17.980Z,43.83
2018-02-20T03:37:46.593Z,32.73
2018-02-20T03:40:18.642Z,42.17
2018-02-20T03:42:49.191Z,34.30
2018-02-20T03:45:16.847Z,37.57
2018-02-20T03:47:48.372Z,36.37
2018-02-20T03:50:17.594Z,38.27
2018-02-20T03:52:45.096Z,38.53
2018-02-20T04:08:18.535Z,38.03
2018-02-20T04:10:46.099Z,40.57
2018-02-20T04:13:13.663Z,45.27
2018-02-20T04:15:41.185Z,43.57
2018-02-20T04:18:09.501Z,44.53
2018-02-20T04:20:37.855Z,46.93
2018-02-20T04:23:06.281Z,44.33
2018-02-20T04:25:45.585Z,40.77
2018-02-20T04:28:13.717Z,43.70
2018-02-20T04:30:41.258Z,40.57
2018-02-20T04:33:08.894Z,43.60
2018-02-20T04:35:36.817Z,38.87
2018-02-20T04:38:04.785Z,41.53
2018-02-20T04:40:32.633Z,41.83
2018-02-20T04:43:00.656Z,38.00
2018-02-20T04:45:28.165Z,40.07
2018-02-20T04:47:59.873Z,41.80
2018-02-20T04:50:31.446Z,39.67
2018-02-20T04:52:58.960Z,39.20
2018-02-20T04:55:27.245Z,42.30
2018-02-20T04:57:59.792Z,39.93
2018-02-20T05:00:27.344Z,42.03
2018-02-20T05:02:55.220Z,44.10
2018-02-20T05:05:23.146Z,40.83
2018-02-20T05:07:50.664Z,40.23
2018-02-20T05:10:18.960Z,37.07
2018-02-20T05:12:51.635Z,39.43
2018-02-20T05:15:27.220Z,45.87
2018-02-20T05:17:54.741Z,42.77
2018-02-20T05:20:23.014Z,42.40
2018-02-20T05:22:51.942Z,43.70
2018-02-20T05:25:19.542Z,44.13
2018-02-20T05:27:48.853Z,42.73
2018-02-20T05:30:30.537Z,38.83
2018-02-20T05:32:58.101Z,45.33
2018-02-20T05:35:25.626Z,39.80
2018-02-20T05:37:53.140Z,40.97
2018-02-20T05:40:22.474Z,47.77
2018-02-20T05:42:53.903Z,45.13
2018-02-20T05:45:22.465Z,42.27
2018-02-20T05:47:54.447Z,38.90
2018-02-20T05:50:23.076Z,46.47
2018-02-20T05:52:51.660Z,43.00
2018-02-20T05:55:19.181Z,42.83
2018-02-20T05:57:47.081Z,39.87
2018-02-20T06:00:15.979Z,42.80
2018-02-20T06:02:47.947Z,45.80
2018-02-20T06:05:15.600Z,48.27
2018-02-20T06:07:43.256Z,44.30
2018-02-20T06:10:15.089Z,36.83
2018-02-20T06:12:43.024Z,38.73
2018-02-20T06:15:13.757Z,43.57
2018-02-20T06:17:45.854Z,45.10
2018-02-20T06:20:13.413Z,42.53
2018-02-20T06:22:41.689Z,43.73
2018-02-20T06:25:09.944Z,41.87
2018-02-20T06:27:37.480Z,44.40
2018-02-20T06:30:05.048Z,42.83
2018-02-20T06:32:32.556Z,45.03
2018-02-20T06:35:00.798Z,38.40
2018-02-20T06:37:32.436Z,45.30
2018-02-20T06:40:00.023Z,35.60
2018-02-20T06:42:36.141Z,39.50
2018-02-20T06:45:09.573Z,39.93
2018-02-20T06:47:41.586Z,40.50
2018-02-20T06:50:09.962Z,45.33
2018-02-20T06:52:38.183Z,38.37
2018-02-20T06:55:05.708Z,44.67
2018-02-20T06:57:33.855Z,44.10
2018-02-20T07:00:01.393Z,41.47
2018-02-20T07:02:29.805Z,42.23
2018-02-20T07:04:57.751Z,37.60
2018-02-20T07:07:30.222Z,44.93
2018-02-20T07:09:58.508Z,41.40
2018-02-20T07:12:30.940Z,37.47
2018-02-20T07:14:59.057Z,41.27
2018-02-20T07:17:27.461Z,42.30
2018-02-20T07:19:55.017Z,35.87
2018-02-20T07:22:26.880Z,33.10
2018-02-20T07:24:54.448Z,35.23
2018-02-20T07:27:22.041Z,29.10
2018-02-20T07:29:51.098Z,33.50
2018-02-20T07:32:18.664Z,32.43
2018-02-20T07:34:46.217Z,31.73
2018-02-20T07:37:14.521Z,27.60
2018-02-20T07:39:42.089Z,30.07
2018-02-20T07:42:09.677Z,29.03
2018-02-20T07:44:39.221Z,28.87
2018-02-20T07:47:06.884Z,27.47
2018-02-20T07:49:34.651Z,28.03
2018-02-20T07:52:02.193Z,26.77
2018-02-20T07:54:29.722Z,26.80
2018-02-20T07:56:57.258Z,28.73
2018-02-20T07:59:24.772Z,28.43
2018-02-20T08:01:52.335Z,30.20
2018-02-20T08:04:23.989Z,27.53
2018-02-20T08:06:51.508Z,27.70
2018-02-20T08:09:19.420Z,28.50
2018-02-20T08:11:47.856Z,28.30
2018-02-20T08:14:15.470Z,27.17
2018-02-20T08:29:48.045Z,26.80
2018-02-20T08:45:20.591Z,27.80
2018-02-20T08:47:48.128Z,28.62
2018-02-20T08:50:16.431Z,27.95
2018-02-20T08:52:44.030Z,28.35
2018-02-20T08:55:12.173Z,26.98
2018-02-20T08:57:39.695Z,28.05
2018-02-20T09:00:08.006Z,27.55
2018-02-20T09:02:35.474Z,27.10
2018-02-20T09:05:03.010Z,32.22
2018-02-20T09:07:31.823Z,28.45
2018-02-20T09:09:59.345Z,27.37
2018-02-20T09:12:31.959Z,29.15
2018-02-20T09:14:59.504Z,26.77
2018-02-20T09:17:27.017Z,28.70
2018-02-20T09:19:55.459Z,28.77
2018-02-20T09:22:22.996Z,27.02
2018-02-20T09:24:51.305Z,27.93
2018-02-20T09:27:18.829Z,29.50
2018-02-20T09:29:47.112Z,26.42
2018-02-20T09:32:14.654Z,28.77
2018-02-20T09:34:43.791Z,27.73
2018-02-20T09:37:11.334Z,28.73
2018-02-20T09:39:39.063Z,27.35
2018-02-20T09:42:08.357Z,28.83
2018-02-20T09:44:36.249Z,27.92
2018-02-20T09:47:04.597Z,27.73
2018-02-20T09:49:32.676Z,28.25
2018-02-20T09:52:01.020Z,27.90
2018-02-20T09:54:28.543Z,30.93
2018-02-20T09:56:56.957Z,31.33
2018-02-20T09:59:24.480Z,30.03
2018-02-20T10:01:53.848Z,30.47
2018-02-20T10:04:26.359Z,28.47
2018-02-20T10:06:54.644Z,27.93
2018-02-20T10:09:31.238Z,28.53
2018-02-20T10:11:59.849Z,29.83
2018-02-20T10:14:27.394Z,29.53
2018-02-20T10:16:54.925Z,30.77
2018-02-20T10:19:22.489Z,30.15
2018-02-20T10:21:50.527Z,29.13
2018-02-20T10:24:18.188Z,30.67
2018-02-20T10:26:47.695Z,31.77
2018-02-20T10:29:15.222Z,29.50
2018-02-20T10:31:42.809Z,30.30
2018-02-20T10:34:10.425Z,32.13
2018-02-20T10:36:38.557Z,33.17
2018-02-20T10:39:06.854Z,32.37
2018-02-20T10:41:38.351Z,28.87
2018-02-20T10:44:05.889Z,31.30
2018-02-20T10:46:33.416Z,29.93
2018-02-20T10:49:01.717Z,31.30
2018-02-20T10:51:29.302Z,32.83
2018-02-20T10:53:56.841Z,32.50
2018-02-20T10:56:24.418Z,33.70
2018-02-20T10:58:52.062Z,30.57
2018-02-20T11:01:19.625Z,33.20
2018-02-20T11:03:47.225Z,33.10
2018-02-20T11:06:14.788Z,34.40
2018-02-20T11:08:43.257Z,36.87
2018-02-20T11:11:10.793Z,33.23
2018-02-20T11:13:38.305Z,37.53
2018-02-20T11:16:06.619Z,34.50
2018-02-20T11:18:34.137Z,34.40
2018-02-20T11:21:01.750Z,33.13
2018-02-20T11:25:21.771Z,37.03
2018-02-20T11:27:49.301Z,37.20
2018-02-20T11:30:16.852Z,37.13
2018-02-20T11:32:44.388Z,35.67
2018-02-20T11:35:12.934Z,38.07
2018-02-20T11:37:40.469Z,38.60
2018-02-20T11:40:08.167Z,38.13
2018-02-20T11:42:35.804Z,39.53
2018-02-20T11:45:03.390Z,36.80
2018-02-20T11:47:31.122Z,37.23
2018-02-20T11:49:58.663Z,37.17
2018-02-20T11:52:26.213Z,43.30
2018-02-20T11:54:53.841Z,41.77
2018-02-20T11:57:22.157Z,38.07
2018-02-20T11:59:49.677Z,38.97
2018-02-20T12:02:17.293Z,34.73
2018-02-20T12:04:45.306Z,35.40
2018-02-20T12:07:13.574Z,36.43
2018-02-20T12:09:41.489Z,36.97
2018-02-20T12:12:09.158Z,36.93
2018-02-20T12:14:37.056Z,39.80
2018-02-20T12:17:05.364Z,42.33
2018-02-20T12:19:32.902Z,40.80
2018-02-20T12:22:05.247Z,41.27
2018-02-20T12:24:37.547Z,43.23
2018-02-20T12:27:05.180Z,42.57
2018-02-20T12:29:32.750Z,39.70
2018-02-20T12:32:00.419Z,46.00
2018-02-20T12:34:28.055Z,41.63
2018-02-20T12:36:55.586Z,42.63
2018-02-20T12:39:24.281Z,37.80
2018-02-20T12:41:52.685Z,38.97
2018-02-20T12:44:20.263Z,42.93
2018-02-20T12:46:51.694Z,42.10
2018-02-20T12:49:19.262Z,40.60
2018-02-20T12:51:46.813Z,44.43
2018-02-20T12:54:14.377Z,43.60
2018-02-20T12:56:41.943Z,42.30
2018-02-20T12:59:09.510Z,44.13
2018-02-20T13:01:37.175Z,41.80
2018-02-20T13:04:08.505Z,41.70
2018-02-20T13:06:36.064Z,49.93
2018-02-20T13:09:03.637Z,48.13
2018-02-20T13:11:31.373Z,48.83
2018-02-20T13:13:59.670Z,47.30
2018-02-20T13:16:27.194Z,45.77
2018-02-20T13:18:55.988Z,47.70
2018-02-20T13:21:24.304Z,43.67
2018-02-20T13:23:53.161Z,47.00
2018-02-20T13:26:25.389Z,49.30
2018-02-20T13:28:53.028Z,51.33
2018-02-20T13:31:20.553Z,48.13
2018-02-20T13:33:48.957Z,47.47
2018-02-20T13:36:16.517Z,52.93
2018-02-20T13:38:47.837Z,43.80
2018-02-20T13:41:16.151Z,45.03
2018-02-20T13:43:49.274Z,49.20
2018-02-20T13:46:16.807Z,49.80
2018-02-20T13:48:45.482Z,48.60
2018-02-20T13:51:13.058Z,49.60
2018-02-20T13:53:40.589Z,44.90
2018-02-20T14:09:13.221Z,53.67
2018-02-20T14:11:41.490Z,50.73
2018-02-20T14:14:13.171Z,50.73
2018-02-20T14:16:41.469Z,52.63
2018-02-20T14:19:09.762Z,49.40
2018-02-20T14:21:37.302Z,50.37
2018-02-20T14:24:04.826Z,45.93
2018-02-20T14:26:32.357Z,44.90
2018-02-20T14:29:00.624Z,45.17
2018-02-20T14:31:28.910Z,48.17
2018-02-20T14:33:56.664Z,45.57
2018-02-20T14:36:24.472Z,48.33
2018-02-20T14:38:52.001Z,46.23
2018-02-20T14:41:20.269Z,47.10
2018-02-20T14:43:47.820Z,43.50
2018-02-20T14:46:15.357Z,46.17
2018-02-20T14:48:42.885Z,44.37
2018-02-20T14:51:10.509Z,46.23
2018-02-20T14:53:38.265Z,47.07
2018-02-20T14:56:05.801Z,48.53
2018-02-20T14:58:33.481Z,47.67
2018-02-20T15:01:01.005Z,42.87
2018-02-20T15:03:29.418Z,49.30
2018-02-20T15:05:57.818Z,45.63
2018-02-20T15:08:25.969Z,46.67
2018-02-20T15:10:53.852Z,48.80
2018-02-20T15:26:27.183Z,50.03
2018-02-20T15:28:54.843Z,50.40
2018-02-20T15:33:58.327Z,51.73
2018-02-20T15:36:27.070Z,53.80
2018-02-20T15:38:55.641Z,48.83
2018-02-20T15:41:24.804Z,52.43
2018-02-20T15:43:53.022Z,48.07
2018-02-20T15:46:26.181Z,51.23
2018-02-20T15:48:54.119Z,52.83
2018-02-20T15:51:21.653Z,46.80
2018-02-20T15:53:49.953Z,53.53
2018-02-20T15:56:18.440Z,46.17
2018-02-20T15:58:45.974Z,56.23
